Aviation Weather View - Albury, NSW
Albury
METAR YMAY 311130Z 23005KT 9999 13/13 Q1014
ADVISORY INFORMATION ONLY.
Information and images sourced on a "best effort" basis from
our own station 2.7NM north of the field at 1016ft AMSL.
Weather information is NOT from the Albury Airport.

Contact Ross on 0409-578-660
Updated 1149Z (31-Oct-2020 at 22:49:05 local)
Temperature 13.9 Deg C
QNH is 1015
Humidity is 100% RH
Dewpoint is 13.9 Deg C
Estimated Cloudbase is BELOW 1000 feet amsl
Wind: 2 KT, gusting to 5 KT from 151 degrees magnetic (139 true)
Runway 07 Crosswind 2KT Right to Left
Runway 25 Crosswind 2KT Left to Right
Wind last 10 minutes: Average 2 KT
Solar Insolation: 0 W/m^2

TWR: 123.25 SMC: 121.8 AWIS: 134.525 ATIS: 115.6/133.85 Map
How to interpret the wind rose
Wind Rose
Solar Radiation Decoded METAR data
Albury Airport (94896, YMAY)
WMO Index: 95896
ID Name: YMAY
Date/Time: 31-Oct-2020 1130 UTC
Lat/Lon: 36.07S 146.95E
Wind: 230 deg true at 05.0 knots
Temperature: 13.3 deg C
Dewpoint: 13.3 deg C
QNH: 1014.7
Rain since 9am: 14.2
Rain last 10 mins: 0.0
Visibility: -9999 metres
AutoVisibility: 10000 metres
Max Wind Gust last 10 mins: 06.0 knots

Calculated humidity: 100.0 %RH